sensor_id;sensor_type;location;lat;lon;timestamp;P1;durP1;ratioP1;P2;durP2;ratioP2
62798;SDS011;48842;51.046;13.796;2023-04-24T00:01:28;4.00;;;3.70;;
62798;SDS011;48842;51.046;13.796;2023-04-24T00:03:54;5.47;;;5.00;;
62798;SDS011;48842;51.046;13.796;2023-04-24T00:06:20;8.13;;;4.23;;
62798;SDS011;48842;51.046;13.796;2023-04-24T00:08:48;4.90;;;4.47;;
62798;SDS011;48842;51.046;13.796;2023-04-24T00:11:13;4.53;;;4.13;;
62798;SDS011;48842;51.046;13.796;2023-04-24T00:13:39;4.30;;;3.90;;
62798;SDS011;48842;51.046;13.796;2023-04-24T00:16:04;6.40;;;4.70;;
62798;SDS011;48842;51.046;13.796;2023-04-24T00:18:30;5.63;;;4.47;;
62798;SDS011;48842;51.046;13.796;2023-04-24T00:20:55;4.57;;;4.10;;
62798;SDS011;48842;51.046;13.796;2023-04-24T00:23:21;5.03;;;4.63;;
62798;SDS011;48842;51.046;13.796;2023-04-24T00:25:46;4.80;;;3.97;;
62798;SDS011;48842;51.046;13.796;2023-04-24T00:28:11;4.50;;;4.20;;
62798;SDS011;48842;51.046;13.796;2023-04-24T00:30:36;6.20;;;4.80;;
62798;SDS011;48842;51.046;13.796;2023-04-24T00:33:02;5.00;;;4.50;;
62798;SDS011;48842;51.046;13.796;2023-04-24T00:35:27;5.40;;;4.20;;
62798;SDS011;48842;51.046;13.796;2023-04-24T00:37:53;4.53;;;4.13;;
62798;SDS011;48842;51.046;13.796;2023-04-24T00:40:19;7.20;;;3.90;;
62798;SDS011;48842;51.046;13.796;2023-04-24T00:42:44;6.00;;;3.97;;
62798;SDS011;48842;51.046;13.796;2023-04-24T00:45:10;5.10;;;4.30;;
62798;SDS011;48842;51.046;13.796;2023-04-24T00:47:36;7.03;;;4.60;;
62798;SDS011;48842;51.046;13.796;2023-04-24T00:50:02;4.87;;;3.97;;
62798;SDS011;48842;51.046;13.796;2023-04-24T00:52:31;4.47;;;4.07;;
62798;SDS011;48842;51.046;13.796;2023-04-24T00:54:57;5.00;;;4.63;;
62798;SDS011;48842;51.046;13.796;2023-04-24T00:57:23;4.40;;;4.00;;
62798;SDS011;48842;51.046;13.796;2023-04-24T00:59:49;9.00;;;4.40;;
62798;SDS011;48842;51.046;13.796;2023-04-24T01:02:16;5.10;;;4.30;;
62798;SDS011;48842;51.046;13.796;2023-04-24T01:04:42;4.73;;;4.33;;
62798;SDS011;48842;51.046;13.796;2023-04-24T01:07:08;4.30;;;3.93;;
62798;SDS011;48842;51.046;13.796;2023-04-24T01:09:35;4.27;;;3.87;;
62798;SDS011;48842;51.046;13.796;2023-04-24T01:12:02;4.53;;;4.13;;
62798;SDS011;48842;51.046;13.796;2023-04-24T01:14:28;4.73;;;4.23;;
62798;SDS011;48842;51.046;13.796;2023-04-24T01:16:53;8.13;;;4.30;;
62798;SDS011;48842;51.046;13.796;2023-04-24T01:19:18;5.07;;;4.40;;
62798;SDS011;48842;51.046;13.796;2023-04-24T01:21:43;5.13;;;4.63;;
62798;SDS011;48842;51.046;13.796;2023-04-24T01:24:12;6.40;;;4.47;;
62798;SDS011;48842;51.046;13.796;2023-04-24T01:26:37;7.13;;;4.13;;
62798;SDS011;48842;51.046;13.796;2023-04-24T01:29:03;4.30;;;4.00;;
62798;SDS011;48842;51.046;13.796;2023-04-24T01:31:28;7.10;;;4.47;;
62798;SDS011;48842;51.046;13.796;2023-04-24T01:33:53;5.30;;;4.40;;
62798;SDS011;48842;51.046;13.796;2023-04-24T01:36:20;5.10;;;4.60;;
62798;SDS011;48842;51.046;13.796;2023-04-24T01:38:46;7.10;;;4.17;;
62798;SDS011;48842;51.046;13.796;2023-04-24T01:41:11;6.47;;;4.27;;
62798;SDS011;48842;51.046;13.796;2023-04-24T01:43:37;6.40;;;4.70;;
62798;SDS011;48842;51.046;13.796;2023-04-24T01:46:02;5.53;;;5.03;;
62798;SDS011;48842;51.046;13.796;2023-04-24T01:48:28;5.50;;;4.70;;
62798;SDS011;48842;51.046;13.796;2023-04-24T01:50:53;5.20;;;4.70;;
62798;SDS011;48842;51.046;13.796;2023-04-24T01:53:19;4.40;;;4.10;;
62798;SDS011;48842;51.046;13.796;2023-04-24T01:55:44;4.30;;;3.70;;
62798;SDS011;48842;51.046;13.796;2023-04-24T01:58:09;5.23;;;4.73;;
62798;SDS011;48842;51.046;13.796;2023-04-24T02:00:35;5.40;;;4.90;;
62798;SDS011;48842;51.046;13.796;2023-04-24T02:03:00;4.73;;;4.37;;
62798;SDS011;48842;51.046;13.796;2023-04-24T02:05:26;4.47;;;4.07;;
62798;SDS011;48842;51.046;13.796;2023-04-24T02:07:52;5.70;;;4.83;;
62798;SDS011;48842;51.046;13.796;2023-04-24T02:10:17;4.63;;;4.33;;
62798;SDS011;48842;51.046;13.796;2023-04-24T02:12:43;5.60;;;5.10;;
62798;SDS011;48842;51.046;13.796;2023-04-24T02:15:08;5.63;;;4.97;;
62798;SDS011;48842;51.046;13.796;2023-04-24T02:17:34;6.10;;;4.13;;
62798;SDS011;48842;51.046;13.796;2023-04-24T02:19:59;5.23;;;4.73;;
62798;SDS011;48842;51.046;13.796;2023-04-24T02:22:25;5.30;;;4.80;;
62798;SDS011;48842;51.046;13.796;2023-04-24T02:24:50;6.67;;;4.70;;
62798;SDS011;48842;51.046;13.796;2023-04-24T02:27:15;5.53;;;4.97;;
62798;SDS011;48842;51.046;13.796;2023-04-24T02:29:40;6.57;;;5.67;;
62798;SDS011;48842;51.046;13.796;2023-04-24T02:32:06;6.53;;;4.97;;
62798;SDS011;48842;51.046;13.796;2023-04-24T02:34:31;5.40;;;4.67;;
62798;SDS011;48842;51.046;13.796;2023-04-24T02:36:56;5.00;;;4.70;;
62798;SDS011;48842;51.046;13.796;2023-04-24T02:39:22;5.67;;;5.17;;
62798;SDS011;48842;51.046;13.796;2023-04-24T02:41:47;6.97;;;4.93;;
62798;SDS011;48842;51.046;13.796;2023-04-24T02:44:12;5.93;;;5.33;;
62798;SDS011;48842;51.046;13.796;2023-04-24T02:46:37;5.47;;;4.97;;
62798;SDS011;48842;51.046;13.796;2023-04-24T02:49:03;5.80;;;4.40;;
62798;SDS011;48842;51.046;13.796;2023-04-24T02:51:28;5.10;;;4.70;;
62798;SDS011;48842;51.046;13.796;2023-04-24T02:53:54;5.97;;;4.43;;
62798;SDS011;48842;51.046;13.796;2023-04-24T02:56:19;10.00;;;4.93;;
62798;SDS011;48842;51.046;13.796;2023-04-24T02:58:45;4.80;;;4.50;;
62798;SDS011;48842;51.046;13.796;2023-04-24T03:01:10;5.33;;;4.80;;
62798;SDS011;48842;51.046;13.796;2023-04-24T03:03:36;5.20;;;4.70;;
62798;SDS011;48842;51.046;13.796;2023-04-24T03:06:02;5.30;;;4.90;;
62798;SDS011;48842;51.046;13.796;2023-04-24T03:08:27;7.63;;;4.80;;
62798;SDS011;48842;51.046;13.796;2023-04-24T03:10:53;9.20;;;5.10;;
62798;SDS011;48842;51.046;13.796;2023-04-24T03:13:18;5.73;;;5.17;;
62798;SDS011;48842;51.046;13.796;2023-04-24T03:15:43;5.30;;;4.60;;
62798;SDS011;48842;51.046;13.796;2023-04-24T03:18:09;9.27;;;6.00;;
62798;SDS011;48842;51.046;13.796;2023-04-24T03:20:35;6.50;;;4.90;;
62798;SDS011;48842;51.046;13.796;2023-04-24T03:23:01;6.60;;;5.50;;
62798;SDS011;48842;51.046;13.796;2023-04-24T03:25:27;8.03;;;5.27;;
62798;SDS011;48842;51.046;13.796;2023-04-24T03:27:52;7.10;;;4.87;;
62798;SDS011;48842;51.046;13.796;2023-04-24T03:30:20;10.27;;;5.37;;
62798;SDS011;48842;51.046;13.796;2023-04-24T03:32:45;5.57;;;5.07;;
62798;SDS011;48842;51.046;13.796;2023-04-24T03:35:10;7.13;;;5.43;;
62798;SDS011;48842;51.046;13.796;2023-04-24T03:37:35;6.80;;;5.53;;
62798;SDS011;48842;51.046;13.796;2023-04-24T03:40:01;5.00;;;4.60;;
62798;SDS011;48842;51.046;13.796;2023-04-24T03:42:27;8.07;;;5.60;;
62798;SDS011;48842;51.046;13.796;2023-04-24T03:44:52;5.87;;;5.20;;
62798;SDS011;48842;51.046;13.796;2023-04-24T03:47:18;5.90;;;5.40;;
62798;SDS011;48842;51.046;13.796;2023-04-24T03:49:43;9.50;;;5.80;;
62798;SDS011;48842;51.046;13.796;2023-04-24T03:52:08;6.40;;;5.30;;
62798;SDS011;48842;51.046;13.796;2023-04-24T03:54:33;6.57;;;5.97;;
62798;SDS011;48842;51.046;13.796;2023-04-24T03:56:59;7.27;;;5.37;;
62798;SDS011;48842;51.046;13.796;2023-04-24T03:59:25;5.90;;;5.17;;
62798;SDS011;48842;51.046;13.796;2023-04-24T04:01:50;6.37;;;5.67;;
62798;SDS011;48842;51.046;13.796;2023-04-24T04:04:15;9.10;;;5.20;;
62798;SDS011;48842;51.046;13.796;2023-04-24T04:06:41;8.57;;;5.70;;
62798;SDS011;48842;51.046;13.796;2023-04-24T04:09:07;6.63;;;5.23;;
62798;SDS011;48842;51.046;13.796;2023-04-24T04:11:33;13.30;;;5.97;;
62798;SDS011;48842;51.046;13.796;2023-04-24T04:13:58;6.83;;;5.90;;
62798;SDS011;48842;51.046;13.796;2023-04-24T04:16:24;7.87;;;5.27;;
62798;SDS011;48842;51.046;13.796;2023-04-24T04:18:49;5.27;;;4.77;;
62798;SDS011;48842;51.046;13.796;2023-04-24T04:21:15;5.10;;;4.60;;
62798;SDS011;48842;51.046;13.796;2023-04-24T04:23:40;6.93;;;5.60;;
62798;SDS011;48842;51.046;13.796;2023-04-24T04:26:06;5.93;;;4.97;;
62798;SDS011;48842;51.046;13.796;2023-04-24T04:28:32;5.17;;;4.70;;
62798;SDS011;48842;51.046;13.796;2023-04-24T04:30:58;5.10;;;4.70;;
62798;SDS011;48842;51.046;13.796;2023-04-24T04:33:26;5.73;;;5.23;;
62798;SDS011;48842;51.046;13.796;2023-04-24T04:35:52;9.50;;;5.63;;
62798;SDS011;48842;51.046;13.796;2023-04-24T04:38:17;6.30;;;4.87;;
62798;SDS011;48842;51.046;13.796;2023-04-24T04:40:44;7.00;;;5.03;;
62798;SDS011;48842;51.046;13.796;2023-04-24T04:43:10;6.53;;;5.50;;
62798;SDS011;48842;51.046;13.796;2023-04-24T04:45:36;6.20;;;5.40;;
62798;SDS011;48842;51.046;13.796;2023-04-24T04:48:03;7.60;;;5.43;;
62798;SDS011;48842;51.046;13.796;2023-04-24T04:50:29;5.17;;;4.77;;
62798;SDS011;48842;51.046;13.796;2023-04-24T04:52:55;12.30;;;5.10;;
62798;SDS011;48842;51.046;13.796;2023-04-24T04:55:20;5.97;;;5.47;;
62798;SDS011;48842;51.046;13.796;2023-04-24T04:57:46;4.50;;;4.10;;
62798;SDS011;48842;51.046;13.796;2023-04-24T05:00:11;6.97;;;4.73;;
62798;SDS011;48842;51.046;13.796;2023-04-24T05:02:37;4.97;;;4.50;;
62798;SDS011;48842;51.046;13.796;2023-04-24T05:05:03;6.83;;;4.53;;
62798;SDS011;48842;51.046;13.796;2023-04-24T05:07:29;4.97;;;4.47;;
62798;SDS011;48842;51.046;13.796;2023-04-24T05:09:54;8.83;;;4.67;;
62798;SDS011;48842;51.046;13.796;2023-04-24T05:12:19;7.73;;;4.70;;
62798;SDS011;48842;51.046;13.796;2023-04-24T05:14:45;11.80;;;4.60;;
62798;SDS011;48842;51.046;13.796;2023-04-24T05:17:10;7.60;;;3.97;;
62798;SDS011;48842;51.046;13.796;2023-04-24T05:19:36;4.50;;;3.83;;
62798;SDS011;48842;51.046;13.796;2023-04-24T05:22:02;4.03;;;3.73;;
62798;SDS011;48842;51.046;13.796;2023-04-24T05:24:29;4.33;;;3.87;;
62798;SDS011;48842;51.046;13.796;2023-04-24T05:26:54;3.33;;;2.90;;
62798;SDS011;48842;51.046;13.796;2023-04-24T05:29:20;8.17;;;3.70;;
62798;SDS011;48842;51.046;13.796;2023-04-24T05:31:46;6.73;;;3.13;;
62798;SDS011;48842;51.046;13.796;2023-04-24T05:34:11;4.37;;;2.93;;
62798;SDS011;48842;51.046;13.796;2023-04-24T05:36:36;2.90;;;2.70;;
62798;SDS011;48842;51.046;13.796;2023-04-24T05:39:02;5.87;;;2.87;;
62798;SDS011;48842;51.046;13.796;2023-04-24T05:41:29;3.93;;;2.87;;
62798;SDS011;48842;51.046;13.796;2023-04-24T05:43:55;5.07;;;2.10;;
62798;SDS011;48842;51.046;13.796;2023-04-24T05:46:20;3.33;;;2.60;;
62798;SDS011;48842;51.046;13.796;2023-04-24T05:48:45;2.00;;;1.90;;
62798;SDS011;48842;51.046;13.796;2023-04-24T05:51:10;3.10;;;2.10;;
62798;SDS011;48842;51.046;13.796;2023-04-24T05:53:36;6.20;;;2.10;;
62798;SDS011;48842;51.046;13.796;2023-04-24T05:56:01;6.77;;;2.30;;
62798;SDS011;48842;51.046;13.796;2023-04-24T05:58:27;2.83;;;1.67;;
62798;SDS011;48842;51.046;13.796;2023-04-24T06:00:52;6.13;;;2.10;;
62798;SDS011;48842;51.046;13.796;2023-04-24T06:03:18;7.33;;;2.37;;
62798;SDS011;48842;51.046;13.796;2023-04-24T06:05:43;4.70;;;2.00;;
62798;SDS011;48842;51.046;13.796;2023-04-24T06:08:08;3.93;;;1.80;;
62798;SDS011;48842;51.046;13.796;2023-04-24T06:10:34;7.00;;;1.70;;
62798;SDS011;48842;51.046;13.796;2023-04-24T06:13:00;8.97;;;2.17;;
62798;SDS011;48842;51.046;13.796;2023-04-24T06:15:26;8.13;;;2.70;;
62798;SDS011;48842;51.046;13.796;2023-04-24T06:17:53;2.70;;;1.67;;
62798;SDS011;48842;51.046;13.796;2023-04-24T06:20:18;6.60;;;2.10;;
62798;SDS011;48842;51.046;13.796;2023-04-24T06:22:43;3.40;;;1.50;;
62798;SDS011;48842;51.046;13.796;2023-04-24T06:25:09;1.60;;;1.50;;
62798;SDS011;48842;51.046;13.796;2023-04-24T06:27:34;3.20;;;1.40;;
62798;SDS011;48842;51.046;13.796;2023-04-24T06:30:00;1.93;;;1.47;;
62798;SDS011;48842;51.046;13.796;2023-04-24T06:32:25;1.80;;;1.70;;
62798;SDS011;48842;51.046;13.796;2023-04-24T06:34:51;4.33;;;1.67;;
62798;SDS011;48842;51.046;13.796;2023-04-24T06:37:16;2.40;;;1.03;;
62798;SDS011;48842;51.046;13.796;2023-04-24T06:39:43;2.90;;;1.00;;
62798;SDS011;48842;51.046;13.796;2023-04-24T06:42:08;2.83;;;1.23;;
62798;SDS011;48842;51.046;13.796;2023-04-24T06:44:34;1.30;;;1.20;;
62798;SDS011;48842;51.046;13.796;2023-04-24T06:47:05;2.70;;;0.90;;
62798;SDS011;48842;51.046;13.796;2023-04-24T06:49:30;3.17;;;1.03;;
62798;SDS011;48842;51.046;13.796;2023-04-24T06:51:55;2.03;;;1.27;;
62798;SDS011;48842;51.046;13.796;2023-04-24T06:54:21;0.90;;;0.80;;
62798;SDS011;48842;51.046;13.796;2023-04-24T06:56:46;1.63;;;1.30;;
62798;SDS011;48842;51.046;13.796;2023-04-24T06:59:12;1.03;;;0.83;;
62798;SDS011;48842;51.046;13.796;2023-04-24T07:01:37;2.70;;;0.80;;
62798;SDS011;48842;51.046;13.796;2023-04-24T07:04:03;1.00;;;0.73;;
62798;SDS011;48842;51.046;13.796;2023-04-24T07:06:28;5.60;;;1.00;;
62798;SDS011;48842;51.046;13.796;2023-04-24T07:08:56;4.23;;;1.00;;
62798;SDS011;48842;51.046;13.796;2023-04-24T07:11:21;2.30;;;0.63;;
62798;SDS011;48842;51.046;13.796;2023-04-24T07:13:47;3.50;;;0.97;;
62798;SDS011;48842;51.046;13.796;2023-04-24T07:16:12;0.80;;;0.80;;
62798;SDS011;48842;51.046;13.796;2023-04-24T07:18:38;3.13;;;1.03;;
62798;SDS011;48842;51.046;13.796;2023-04-24T07:21:04;1.07;;;0.80;;
62798;SDS011;48842;51.046;13.796;2023-04-24T07:23:29;3.20;;;0.83;;
62798;SDS011;48842;51.046;13.796;2023-04-24T07:25:55;1.17;;;1.07;;
62798;SDS011;48842;51.046;13.796;2023-04-24T07:28:20;3.37;;;0.93;;
62798;SDS011;48842;51.046;13.796;2023-04-24T07:30:46;0.80;;;0.80;;
62798;SDS011;48842;51.046;13.796;2023-04-24T07:33:11;1.90;;;0.80;;
62798;SDS011;48842;51.046;13.796;2023-04-24T07:35:38;1.13;;;0.77;;
62798;SDS011;48842;51.046;13.796;2023-04-24T07:38:03;4.70;;;1.17;;
62798;SDS011;48842;51.046;13.796;2023-04-24T07:40:28;1.37;;;0.70;;
62798;SDS011;48842;51.046;13.796;2023-04-24T07:42:54;1.00;;;0.90;;
62798;SDS011;48842;51.046;13.796;2023-04-24T07:45:19;1.00;;;0.83;;
62798;SDS011;48842;51.046;13.796;2023-04-24T07:47:45;1.17;;;0.70;;
62798;SDS011;48842;51.046;13.796;2023-04-24T07:50:11;0.90;;;0.70;;
62798;SDS011;48842;51.046;13.796;2023-04-24T07:52:37;1.40;;;1.00;;
62798;SDS011;48842;51.046;13.796;2023-04-24T07:55:03;1.53;;;0.90;;
62798;SDS011;48842;51.046;13.796;2023-04-24T07:57:29;3.83;;;0.97;;
62798;SDS011;48842;51.046;13.796;2023-04-24T07:59:55;2.60;;;0.60;;
62798;SDS011;48842;51.046;13.796;2023-04-24T08:02:20;1.87;;;0.90;;
62798;SDS011;48842;51.046;13.796;2023-04-24T08:04:50;1.80;;;0.70;;
62798;SDS011;48842;51.046;13.796;2023-04-24T08:07:16;1.70;;;0.80;;
62798;SDS011;48842;51.046;13.796;2023-04-24T08:09:41;2.20;;;1.00;;
62798;SDS011;48842;51.046;13.796;2023-04-24T08:12:07;2.93;;;1.30;;
62798;SDS011;48842;51.046;13.796;2023-04-24T08:14:32;3.37;;;0.80;;
62798;SDS011;48842;51.046;13.796;2023-04-24T08:16:57;1.10;;;0.70;;
62798;SDS011;48842;51.046;13.796;2023-04-24T08:19:25;2.07;;;0.80;;
62798;SDS011;48842;51.046;13.796;2023-04-24T08:21:50;1.13;;;0.70;;
62798;SDS011;48842;51.046;13.796;2023-04-24T08:24:15;2.47;;;1.00;;
62798;SDS011;48842;51.046;13.796;2023-04-24T08:26:40;1.20;;;0.60;;
62798;SDS011;48842;51.046;13.796;2023-04-24T08:29:06;7.67;;;1.10;;
62798;SDS011;48842;51.046;13.796;2023-04-24T08:31:31;4.30;;;0.90;;
62798;SDS011;48842;51.046;13.796;2023-04-24T08:33:57;6.27;;;1.20;;
62798;SDS011;48842;51.046;13.796;2023-04-24T08:36:22;1.53;;;1.10;;
62798;SDS011;48842;51.046;13.796;2023-04-24T08:38:48;0.80;;;0.80;;
62798;SDS011;48842;51.046;13.796;2023-04-24T08:41:13;2.10;;;0.80;;
62798;SDS011;48842;51.046;13.796;2023-04-24T08:43:40;2.00;;;0.80;;
62798;SDS011;48842;51.046;13.796;2023-04-24T08:46:06;1.07;;;0.80;;
62798;SDS011;48842;51.046;13.796;2023-04-24T08:48:31;0.83;;;0.70;;
62798;SDS011;48842;51.046;13.796;2023-04-24T08:50:58;1.83;;;0.93;;
62798;SDS011;48842;51.046;13.796;2023-04-24T08:53:24;2.87;;;0.90;;
62798;SDS011;48842;51.046;13.796;2023-04-24T08:55:50;1.70;;;0.80;;
62798;SDS011;48842;51.046;13.796;2023-04-24T08:58:16;2.67;;;1.03;;
62798;SDS011;48842;51.046;13.796;2023-04-24T09:00:43;2.70;;;0.77;;
62798;SDS011;48842;51.046;13.796;2023-04-24T09:03:11;1.13;;;0.67;;
62798;SDS011;48842;51.046;13.796;2023-04-24T09:05:39;0.90;;;0.63;;
62798;SDS011;48842;51.046;13.796;2023-04-24T09:08:05;1.87;;;0.87;;
62798;SDS011;48842;51.046;13.796;2023-04-24T09:10:32;2.20;;;0.87;;
62798;SDS011;48842;51.046;13.796;2023-04-24T09:12:59;1.00;;;0.70;;
62798;SDS011;48842;51.046;13.796;2023-04-24T09:15:26;2.60;;;0.67;;
62798;SDS011;48842;51.046;13.796;2023-04-24T09:17:52;3.80;;;0.90;;
62798;SDS011;48842;51.046;13.796;2023-04-24T09:20:17;1.23;;;0.80;;
62798;SDS011;48842;51.046;13.796;2023-04-24T09:22:43;19.17;;;2.30;;
62798;SDS011;48842;51.046;13.796;2023-04-24T09:25:10;0.80;;;0.77;;
62798;SDS011;48842;51.046;13.796;2023-04-24T09:27:38;0.60;;;0.60;;
62798;SDS011;48842;51.046;13.796;2023-04-24T09:30:07;4.27;;;1.00;;
62798;SDS011;48842;51.046;13.796;2023-04-24T09:32:33;2.10;;;0.83;;
62798;SDS011;48842;51.046;13.796;2023-04-24T09:35:06;5.17;;;0.70;;
62798;SDS011;48842;51.046;13.796;2023-04-24T09:37:39;1.80;;;0.93;;
62798;SDS011;48842;51.046;13.796;2023-04-24T09:40:10;3.33;;;0.53;;
62798;SDS011;48842;51.046;13.796;2023-04-24T09:42:37;1.63;;;1.17;;
62798;SDS011;48842;51.046;13.796;2023-04-24T09:45:03;1.83;;;0.73;;
62798;SDS011;48842;51.046;13.796;2023-04-24T09:47:35;5.70;;;0.90;;
62798;SDS011;48842;51.046;13.796;2023-04-24T09:50:08;1.20;;;0.70;;
62798;SDS011;48842;51.046;13.796;2023-04-24T09:52:41;1.70;;;0.70;;
62798;SDS011;48842;51.046;13.796;2023-04-24T09:55:11;1.07;;;0.70;;
62798;SDS011;48842;51.046;13.796;2023-04-24T09:57:48;2.10;;;0.83;;
62798;SDS011;48842;51.046;13.796;2023-04-24T10:00:21;1.97;;;0.70;;
62798;SDS011;48842;51.046;13.796;2023-04-24T10:02:54;0.90;;;0.80;;
62798;SDS011;48842;51.046;13.796;2023-04-24T10:05:32;4.50;;;0.70;;
62798;SDS011;48842;51.046;13.796;2023-04-24T10:10:32;2.57;;;0.90;;
62798;SDS011;48842;51.046;13.796;2023-04-24T10:12:59;1.80;;;0.70;;
62798;SDS011;48842;51.046;13.796;2023-04-24T10:15:25;0.70;;;0.60;;
62798;SDS011;48842;51.046;13.796;2023-04-24T10:17:51;0.90;;;0.60;;
62798;SDS011;48842;51.046;13.796;2023-04-24T10:20:24;1.07;;;0.70;;
62798;SDS011;48842;51.046;13.796;2023-04-24T10:22:51;2.20;;;0.63;;
62798;SDS011;48842;51.046;13.796;2023-04-24T10:25:22;5.10;;;0.70;;
62798;SDS011;48842;51.046;13.796;2023-04-24T10:27:49;2.20;;;0.57;;
62798;SDS011;48842;51.046;13.796;2023-04-24T10:30:15;0.83;;;0.70;;
62798;SDS011;48842;51.046;13.796;2023-04-24T10:32:42;0.70;;;0.60;;
62798;SDS011;48842;51.046;13.796;2023-04-24T10:35:07;0.60;;;0.57;;
62798;SDS011;48842;51.046;13.796;2023-04-24T10:37:37;3.13;;;1.03;;
62798;SDS011;48842;51.046;13.796;2023-04-24T10:40:06;1.47;;;0.60;;
62798;SDS011;48842;51.046;13.796;2023-04-24T10:42:33;3.63;;;0.70;;
62798;SDS011;48842;51.046;13.796;2023-04-24T10:44:58;0.97;;;0.73;;
62798;SDS011;48842;51.046;13.796;2023-04-24T10:47:24;1.10;;;0.70;;
62798;SDS011;48842;51.046;13.796;2023-04-24T10:49:50;1.57;;;0.70;;
62798;SDS011;48842;51.046;13.796;2023-04-24T10:52:15;1.30;;;0.60;;
62798;SDS011;48842;51.046;13.796;2023-04-24T10:54:44;2.60;;;0.70;;
62798;SDS011;48842;51.046;13.796;2023-04-24T10:59:42;0.77;;;0.67;;
62798;SDS011;48842;51.046;13.796;2023-04-24T11:02:08;1.37;;;1.10;;
62798;SDS011;48842;51.046;13.796;2023-04-24T11:04:34;2.87;;;0.90;;
62798;SDS011;48842;51.046;13.796;2023-04-24T11:07:02;1.57;;;0.90;;
62798;SDS011;48842;51.046;13.796;2023-04-24T11:09:31;2.60;;;1.17;;
62798;SDS011;48842;51.046;13.796;2023-04-24T11:12:05;0.70;;;0.60;;
62798;SDS011;48842;51.046;13.796;2023-04-24T11:17:30;0.93;;;0.80;;
62798;SDS011;48842;51.046;13.796;2023-04-24T11:20:03;0.87;;;0.73;;
62798;SDS011;48842;51.046;13.796;2023-04-24T11:22:33;2.30;;;0.73;;
62798;SDS011;48842;51.046;13.796;2023-04-24T11:25:00;0.90;;;0.60;;
62798;SDS011;48842;51.046;13.796;2023-04-24T11:27:30;1.43;;;0.80;;
62798;SDS011;48842;51.046;13.796;2023-04-24T11:32:23;1.53;;;0.80;;
62798;SDS011;48842;51.046;13.796;2023-04-24T11:34:52;0.70;;;0.70;;
62798;SDS011;48842;51.046;13.796;2023-04-24T11:37:40;0.90;;;0.90;;
62798;SDS011;48842;51.046;13.796;2023-04-24T11:40:08;1.10;;;0.73;;
62798;SDS011;48842;51.046;13.796;2023-04-24T11:42:35;1.33;;;0.60;;
62798;SDS011;48842;51.046;13.796;2023-04-24T11:45:14;2.60;;;1.03;;
62798;SDS011;48842;51.046;13.796;2023-04-24T11:47:41;0.60;;;0.60;;
62798;SDS011;48842;51.046;13.796;2023-04-24T11:50:07;0.90;;;0.70;;
62798;SDS011;48842;51.046;13.796;2023-04-24T11:52:39;3.37;;;0.70;;
62798;SDS011;48842;51.046;13.796;2023-04-24T11:55:06;0.90;;;0.80;;
62798;SDS011;48842;51.046;13.796;2023-04-24T11:57:33;1.10;;;0.70;;
62798;SDS011;48842;51.046;13.796;2023-04-24T12:00:02;2.10;;;1.17;;
62798;SDS011;48842;51.046;13.796;2023-04-24T12:02:29;1.77;;;0.70;;
62798;SDS011;48842;51.046;13.796;2023-04-24T12:04:55;2.93;;;0.63;;
62798;SDS011;48842;51.046;13.796;2023-04-24T12:07:21;1.23;;;0.67;;
62798;SDS011;48842;51.046;13.796;2023-04-24T12:09:55;1.80;;;0.60;;
62798;SDS011;48842;51.046;13.796;2023-04-24T12:12:24;2.20;;;1.00;;
62798;SDS011;48842;51.046;13.796;2023-04-24T12:14:53;1.90;;;0.60;;
62798;SDS011;48842;51.046;13.796;2023-04-24T12:17:24;0.97;;;0.87;;
62798;SDS011;48842;51.046;13.796;2023-04-24T12:19:57;1.80;;;1.00;;
62798;SDS011;48842;51.046;13.796;2023-04-24T12:22:27;3.07;;;1.37;;
62798;SDS011;48842;51.046;13.796;2023-04-24T12:24:56;1.10;;;0.70;;
62798;SDS011;48842;51.046;13.796;2023-04-24T12:27:32;2.80;;;1.07;;
62798;SDS011;48842;51.046;13.796;2023-04-24T12:29:58;0.90;;;0.70;;
62798;SDS011;48842;51.046;13.796;2023-04-24T12:32:25;4.10;;;0.80;;
62798;SDS011;48842;51.046;13.796;2023-04-24T12:34:51;1.00;;;0.70;;
62798;SDS011;48842;51.046;13.796;2023-04-24T12:37:17;0.77;;;0.77;;
62798;SDS011;48842;51.046;13.796;2023-04-24T12:39:58;1.13;;;0.80;;
62798;SDS011;48842;51.046;13.796;2023-04-24T12:42:28;1.33;;;0.93;;
62798;SDS011;48842;51.046;13.796;2023-04-24T12:44:58;0.73;;;0.73;;
62798;SDS011;48842;51.046;13.796;2023-04-24T12:47:25;0.73;;;0.67;;
62798;SDS011;48842;51.046;13.796;2023-04-24T12:49:51;0.70;;;0.70;;
62798;SDS011;48842;51.046;13.796;2023-04-24T12:52:17;1.17;;;0.90;;
62798;SDS011;48842;51.046;13.796;2023-04-24T12:54:53;1.30;;;1.03;;
62798;SDS011;48842;51.046;13.796;2023-04-24T12:57:20;1.70;;;1.00;;
62798;SDS011;48842;51.046;13.796;2023-04-24T12:59:46;1.23;;;0.90;;
62798;SDS011;48842;51.046;13.796;2023-04-24T13:02:11;5.90;;;1.07;;
62798;SDS011;48842;51.046;13.796;2023-04-24T13:04:36;1.33;;;0.90;;
62798;SDS011;48842;51.046;13.796;2023-04-24T13:07:02;0.83;;;0.83;;
62798;SDS011;48842;51.046;13.796;2023-04-24T13:09:27;2.70;;;0.90;;
62798;SDS011;48842;51.046;13.796;2023-04-24T13:11:53;0.70;;;0.70;;
62798;SDS011;48842;51.046;13.796;2023-04-24T13:14:18;0.90;;;0.90;;
62798;SDS011;48842;51.046;13.796;2023-04-24T13:16:44;2.70;;;1.00;;
62798;SDS011;48842;51.046;13.796;2023-04-24T13:19:09;8.73;;;0.80;;
62798;SDS011;48842;51.046;13.796;2023-04-24T13:21:35;2.83;;;1.07;;
62798;SDS011;48842;51.046;13.796;2023-04-24T13:24:00;0.90;;;0.70;;
62798;SDS011;48842;51.046;13.796;2023-04-24T13:26:26;1.10;;;1.00;;
62798;SDS011;48842;51.046;13.796;2023-04-24T13:28:51;1.10;;;1.00;;
62798;SDS011;48842;51.046;13.796;2023-04-24T13:31:16;1.90;;;0.90;;
62798;SDS011;48842;51.046;13.796;2023-04-24T13:33:42;8.53;;;1.23;;
62798;SDS011;48842;51.046;13.796;2023-04-24T13:36:07;1.97;;;0.60;;
62798;SDS011;48842;51.046;13.796;2023-04-24T13:38:34;4.40;;;1.13;;
62798;SDS011;48842;51.046;13.796;2023-04-24T13:40:59;3.60;;;1.10;;
62798;SDS011;48842;51.046;13.796;2023-04-24T13:43:25;3.57;;;1.00;;
62798;SDS011;48842;51.046;13.796;2023-04-24T13:45:50;1.27;;;1.13;;
62798;SDS011;48842;51.046;13.796;2023-04-24T13:48:16;2.27;;;1.10;;
62798;SDS011;48842;51.046;13.796;2023-04-24T13:50:41;0.73;;;0.73;;
62798;SDS011;48842;51.046;13.796;2023-04-24T13:53:07;3.97;;;0.70;;
62798;SDS011;48842;51.046;13.796;2023-04-24T13:55:33;1.80;;;0.90;;
62798;SDS011;48842;51.046;13.796;2023-04-24T13:57:58;1.10;;;0.77;;
62798;SDS011;48842;51.046;13.796;2023-04-24T14:00:23;0.77;;;0.73;;
62798;SDS011;48842;51.046;13.796;2023-04-24T14:02:49;1.83;;;1.20;;
62798;SDS011;48842;51.046;13.796;2023-04-24T14:05:14;0.80;;;0.60;;
62798;SDS011;48842;51.046;13.796;2023-04-24T14:07:40;7.87;;;1.27;;
62798;SDS011;48842;51.046;13.796;2023-04-24T14:10:06;1.40;;;1.00;;
62798;SDS011;48842;51.046;13.796;2023-04-24T14:12:32;0.80;;;0.80;;
62798;SDS011;48842;51.046;13.796;2023-04-24T14:14:57;1.57;;;1.00;;
62798;SDS011;48842;51.046;13.796;2023-04-24T14:17:22;7.17;;;1.00;;
62798;SDS011;48842;51.046;13.796;2023-04-24T14:19:47;1.00;;;1.00;;
62798;SDS011;48842;51.046;13.796;2023-04-24T14:22:13;2.17;;;0.90;;
62798;SDS011;48842;51.046;13.796;2023-04-24T14:24:38;0.97;;;0.80;;
62798;SDS011;48842;51.046;13.796;2023-04-24T14:27:03;1.73;;;1.30;;
62798;SDS011;48842;51.046;13.796;2023-04-24T14:29:29;1.77;;;1.13;;
62798;SDS011;48842;51.046;13.796;2023-04-24T14:31:56;1.70;;;1.07;;
62798;SDS011;48842;51.046;13.796;2023-04-24T14:34:22;1.23;;;0.90;;
62798;SDS011;48842;51.046;13.796;2023-04-24T14:36:47;5.93;;;1.40;;
62798;SDS011;48842;51.046;13.796;2023-04-24T14:39:12;1.17;;;1.00;;